AirNav   Air Wisconsin Up To $57,000 Bonus
 
 942 users online  

WS55 Barten Airport
Sharon, Wisconsin, USA

GOING TO SHARON?


FAA INFORMATION EFFECTIVE 26 JANUARY 2023

Location

FAA Identifier: WS55
Lat/Long: 42-31-03.0580N 088-44-43.3750W
42-31.050967N 088-44.722917W
42.5175161,-88.7453819
(estimated)
Elevation: 977 ft. / 298 m (estimated)
Variation: 00W (1985)
From city: 2 miles SE of SHARON, WI
Time zone: UTC -6 (UTC -5 during Daylight Saving Time)
Zip code: 53585

Airport Operations

Airport use: Private use, PERSONAL.
Activation date: 08/1988
Control tower: no
ARTCC: CHICAGO CENTER
FSS: GREEN BAY FLIGHT SERVICE STATION
Attendance: UNATNDD
Wind indicator: yes
Segmented circle: no

Airport Communications

WX AWOS-3 at JVL (14 nm NW): PHONE 608-758-1723

Nearby radio navigation aids

VOR radial/distance  VOR name  Freq  Var
JVLr096/16.1JANESVILLE VOR/DME114.3003E
OBKr299/39.4NORTHBROOK VOR/DME113.0002W

 
NDB name  Hdg/Dist  Freq  Var  ID
ROCK RIVER182/39.437101WRYV .-. -.-- ...-

Airport Services

Fuel available: 100LL

Runway Information

Runway 18/36

Dimensions: 2650 x 100 ft. / 808 x 30 m
Surface: turf
RUNWAY 18  RUNWAY 36
Traffic pattern: rightleft
Displaced threshold: 1000 ft.no
Obstructions: 50 ft. plines, 75 ft. from runwaynone

Airport Ownership and Management from official FAA records

Ownership: Privately-owned
Owner: MICHAEL G BARTEN
N882 SALT BOX RD RT 1
SHARON, WI 53585
Phone 414-736-9313
Manager: MICHAEL G BARTEN
N882 SALT BOX RD RT 1
SHARON, WI 53585
Phone 414-736-9313

Airport Operational Statistics

Aircraft based on the field: 1
Single engine airplanes: 1
    

Additional Remarks

FOR CD CTC CHICAGO ARTCC AT 630-906-8921.

Instrument Procedures

There are no published instrument procedures at WS55.

Some nearby airports with instrument procedures:

44C - Beloit Airport (10 nm W)
C77 - Poplar Grove Airport (12 nm S)
KJVL - Southern Wisconsin Regional Airport (14 nm NW)
C02 - Grand Geneva Resort Airport (17 nm E)
10C - Galt Field Airport (18 nm SE)
 
Loc | Ops | Rwys | IFR | FBO | Links
Com | Nav | Svcs | Stats | Notes
Area around WS55 (Barten Airport)
 
Road maps at: MapQuest Bing Google
 
Aerial photo
No photo
 
Sectional chart

 
Airport distance calculator
Flying to Barten Airport? Find the distance to fly.

From to WS55

Sunrise and sunset
Times for 27-Jan-2023
 Local
(UTC-6)
 Zulu
(UTC)
Morning civil twilight06:4512:45
Sunrise07:1513:15
Sunset17:0123:01
Evening civil twilight17:3123:31

Current date and time
Zulu (UTC)  27-Jan-2023 13:01:58
Local (UTC-6)  27-Jan-2023 07:01:58
 
METAR
KJVL 
13nm NW 
271245Z 16011KT 10SM BKN070 OVC110 M09/M11 A2975
KBUU 
22nm NE 
271255Z AUTO 17006KT 10SM SCT110 M10/M12 A2978 RMK AO2 T11001123 PWINO
K57C 
23nm NE 
271255Z AUTO 17008KT 10SM SCT110 M10/M13 A2976 RMK AO2 T11051126
KRFD 
25nm SW 
271254Z 18012G20KT 10SM OVC065 M08/M12 A2980 RMK AO2 SLP103 T10831117
TAF
KJVL 
13nm NW 
271127Z 2712/2812 18013G21KT P6SM OVC090 FM271400 19017G26KT 3SM -SN BR OVC035 FM271600 21017G27KT 1SM -SN BR OVC010 FM271800 21017G26KT 3SM -SN OVC009 FM272200 27015G24KT P6SM VCSH OVC014 FM280500 28010KT P6SM BKN160
NOTAMs
Click for the latest NOTAMs
NOTAMs are issued by the DoD/FAA and will open in a separate window not controlled by AirNav.

 

 
 

Would you like to see your business listed on this page?

 If your business provides an interesting product or service to pilots, flight crews, aircraft, or users of the Barten Airport, you should consider listing it here.  To start the listing process, click on the button below
 
Add a business
 

Other Pages about Barten Airport

Update a link
 
Copyright © AirNav, LLC. All rights reserved. Privacy Policy  Contact